Whitehall, Louisiana
Current Conditions -  °F | °C
As of 10:55 AM on Saturday 25 Oct 2014 (Local Time) from KOPL Reporting Station
Overcast Overcast  
Wind Chill: 70°   Ceiling: 200
Heat Index: 70°   Visibility: 10mi
Dew Point: 54°   Wind: 3mph
Humidity: 57%   Direction: 350°N
Pressure: 30.18"   Gusts: NA
Location:  30.9328°N, 92.1876°W
Report Text: KOPL 251555Z AUTO 35003KT 10SM OVC002 21/12 A3018 RMK AO2 T02110122
Loading
Personal Weather Stations






























Interactive Weather Map
Tropical Storm Tracking
New forecast layout! Learn more

10-Day Weather Forecast

Advertisements
Track Severe Weather on mobile